Time;durP1;ratioP1;P1;durP2;ratioP2;P2;SDS_P1;SDS_P2;PMS_P1;PMS_P2;Temp;Humidity;BMP_temperature;BMP_pressure;BME280_temperature;BME280_humidity;BME280_pressure;Samples;Min_cycle;Max_cycle;Signal;HPM_P1;HPM_P2
2022/01/06 00:50:28;;;;;;;;;;;2.80;99.90;;;;;;5102910;27;20068;-49
2022/01/06 00:52:54;;;;;;;;;;;2.80;99.90;;;;;;5076289;28;20068;-48
2022/01/06 00:55:20;;;;;;;;;;;2.80;99.90;;;;;;5071538;28;20336;-46
2022/01/06 00:57:46;;;;;;;;;;;2.80;99.90;;;;;;5069511;28;20544;-48
2022/01/06 01:00:12;;;;;;;;;;;2.90;99.90;;;;;;5079060;28;19947;-45
2022/01/06 01:02:38;;;;;;;;;;;3.00;99.90;;;;;;5093603;28;19927;-44
2022/01/06 02:07:48;;;;;;;;;;;2.20;99.90;;;;;;5078689;27;20073;-45
2022/01/06 02:10:14;;;;;;;;;;;2.20;99.90;;;;;;5050933;28;19935;-44
2022/01/06 02:12:42;;;;;;;;;;;2.20;99.90;;;;;;5051644;28;19916;-46
2022/01/06 02:15:08;;;;;;;;;;;2.10;99.90;;;;;;5061192;28;19932;-44
2022/01/06 02:17:34;;;;;;;;;;;2.10;99.90;;;;;;5018144;28;19923;-46
2022/01/06 02:20:05;;;;;;;;;;;2.10;99.90;;;;;;5049941;28;19920;-46
2022/01/06 02:22:31;;;;;;;;;;;2.00;99.90;;;;;;5063314;28;19928;-44
2022/01/06 02:24:57;;;;;;;;;;;2.00;99.90;;;;;;5065934;28;19924;-47
2022/01/06 02:27:24;;;;;;;;;;;2.10;99.90;;;;;;5051262;28;19920;-45
2022/01/06 02:29:51;;;;;;;;;;;2.10;99.90;;;;;;5047376;28;19978;-45
2022/01/06 02:32:18;;;;;;;;;;;2.10;99.90;;;;;;5050506;28;19990;-47
2022/01/06 02:34:44;;;;;;;;;;;2.20;99.90;;;;;;5065952;28;19920;-48
2022/01/06 02:37:10;;;;;;;;;;;2.20;99.90;;;;;;5062194;28;20361;-44
2022/01/06 02:39:36;;;;;;;;;;;2.20;99.90;;;;;;5052089;28;19924;-44
2022/01/06 02:42:03;;;;;;;;;;;2.20;99.90;;;;;;5067559;28;19926;-46
2022/01/06 02:44:28;;;;;;;;;;;2.20;99.90;;;;;;5065511;28;19943;-46
2022/01/06 02:46:57;;;;;;;;;;;2.20;99.90;;;;;;5065023;28;20362;-44
2022/01/06 02:49:22;;;;;;;;;;;2.20;99.90;;;;;;5063125;28;20541;-44
2022/01/06 02:51:48;;;;;;;;;;;2.20;99.90;;;;;;5069574;28;19961;-45
2022/01/06 02:54:14;;;;;;;;;;;2.30;99.90;;;;;;5032274;28;19917;-46
2022/01/06 02:56:43;;;;;;;;;;;2.40;99.90;;;;;;5038065;28;20014;-45
2022/01/06 02:59:11;;;;;;;;;;;2.40;99.90;;;;;;5063184;28;19999;-46
2022/01/06 03:01:38;;;;;;;;;;;2.40;99.90;;;;;;5048645;28;20391;-45
2022/01/06 03:04:05;;;;;;;;;;;2.30;99.90;;;;;;5033737;28;20238;-45
2022/01/06 03:06:31;;;;;;;;;;;2.20;99.90;;;;;;5049842;28;20298;-46
2022/01/06 03:08:56;;;;;;;;;;;2.20;99.90;;;;;;5066456;28;19931;-46
2022/01/06 03:11:25;;;;;;;;;;;2.10;99.90;;;;;;5065327;28;19920;-45
2022/01/06 03:13:52;;;;;;;;;;;2.10;99.90;;;;;;5038516;28;20190;-45
2022/01/06 03:16:18;;;;;;;;;;;2.00;99.90;;;;;;5029086;28;20022;-47
2022/01/06 03:18:44;;;;;;;;;;;2.00;99.90;;;;;;5060631;28;20003;-46
2022/01/06 03:21:10;;;;;;;;;;;2.00;99.90;;;;;;5042732;28;20703;-45
2022/01/06 03:23:36;;;;;;;;;;;1.90;99.90;;;;;;5043261;28;19979;-46
2022/01/06 03:26:03;;;;;;;;;;;1.80;99.90;;;;;;5063953;28;19924;-46
2022/01/06 03:28:29;;;;;;;;;;;1.80;99.90;;;;;;5063544;28;19916;-45
2022/01/06 03:30:54;;;;;;;;;;;1.70;99.90;;;;;;5074884;28;19983;-45
2022/01/06 03:33:20;;;;;;;;;;;1.70;99.90;;;;;;5044813;28;20673;-46
2022/01/06 03:35:46;;;;;;;;;;;1.60;99.90;;;;;;5062847;28;19951;-47
2022/01/06 03:38:12;;;;;;;;;;;1.70;99.90;;;;;;5025039;28;20342;-47
2022/01/06 03:40:39;;;;;;;;;;;1.70;99.90;;;;;;5052662;28;19924;-46
2022/01/06 03:43:05;;;;;;;;;;;1.70;99.90;;;;;;5065904;28;19916;-48
2022/01/06 03:45:32;;;;;;;;;;;1.80;99.90;;;;;;5065501;28;19946;-47
2022/01/06 03:48:00;;;;;;;;;;;1.70;99.90;;;;;;5044390;28;19916;-44
2022/01/06 03:50:26;;;;;;;;;;;1.60;99.90;;;;;;5045870;28;19942;-44
2022/01/06 03:52:52;;;;;;;;;;;1.50;99.90;;;;;;5043750;28;20362;-45
2022/01/06 03:55:19;;;;;;;;;;;1.50;99.90;;;;;;5049922;28;19920;-45
2022/01/06 03:57:46;;;;;;;;;;;1.40;99.90;;;;;;5045137;28;19922;-44
2022/01/06 04:00:17;;;;;;;;;;;1.30;99.90;;;;;;5076607;28;20352;-44
2022/01/06 04:02:43;;;;;;;;;;;1.40;99.90;;;;;;5031628;28;19934;-44
2022/01/06 04:05:10;;;;;;;;;;;1.40;99.90;;;;;;5047161;28;20058;-44
2022/01/06 04:07:37;;;;;;;;;;;1.30;99.90;;;;;;5076009;28;19932;-44
2022/01/06 04:10:08;;;;;;;;;;;1.30;99.90;;;;;;5072142;28;19920;-45
2022/01/06 04:12:35;;;;;;;;;;;1.30;99.90;;;;;;5067191;28;20328;-44
2022/01/06 04:15:02;;;;;;;;;;;1.30;99.90;;;;;;5083043;28;19931;-44
2022/01/06 04:17:27;;;;;;;;;;;1.30;99.90;;;;;;5093493;28;19915;-45
2022/01/06 04:19:53;;;;;;;;;;;1.30;99.90;;;;;;5086799;28;19951;-48
2022/01/06 04:22:39;;;;;;;;;;;1.30;99.90;;;;;;5089329;28;19990;-45
2022/01/06 04:25:05;;;;;;;;;;;1.30;99.90;;;;;;5070016;28;19916;-47
2022/01/06 04:27:31;;;;;;;;;;;1.30;99.90;;;;;;5084748;28;19973;-46
2022/01/06 04:29:57;;;;;;;;;;;1.30;99.90;;;;;;5073325;28;19924;-47
2022/01/06 04:32:22;;;;;;;;;;;1.30;99.90;;;;;;5088138;28;20023;-44
2022/01/06 04:34:48;;;;;;;;;;;1.30;99.90;;;;;;5066082;28;20704;-44
2022/01/06 04:37:14;;;;;;;;;;;1.30;99.90;;;;;;5086705;28;19927;-44
2022/01/06 04:39:40;;;;;;;;;;;1.30;99.90;;;;;;5084834;28;20420;-45
2022/01/06 04:42:05;;;;;;;;;;;1.30;99.90;;;;;;5085451;28;20668;-46
2022/01/06 04:44:31;;;;;;;;;;;1.20;99.90;;;;;;5052104;28;20020;-45
2022/01/06 04:46:57;;;;;;;;;;;1.30;99.90;;;;;;5085525;28;19987;-43
2022/01/06 04:49:27;;;;;;;;;;;1.20;99.90;;;;;;5071809;28;20492;-44
2022/01/06 04:51:53;;;;;;;;;;;1.20;99.90;;;;;;5081749;28;20042;-45
2022/01/06 04:54:18;;;;;;;;;;;1.20;99.90;;;;;;5065963;28;19994;-45
2022/01/06 04:56:44;;;;;;;;;;;1.20;99.90;;;;;;5083493;28;19923;-47
2022/01/06 04:59:10;;;;;;;;;;;1.20;99.90;;;;;;5076819;28;19916;-44
2022/01/06 05:01:37;;;;;;;;;;;1.20;99.90;;;;;;5068072;28;19924;-46
2022/01/06 05:04:03;;;;;;;;;;;1.20;99.90;;;;;;5052202;28;19923;-44
2022/01/06 05:06:54;;;;;;;;;;;1.20;99.90;;;;;;5083508;28;19920;-46
2022/01/06 05:09:19;;;;;;;;;;;1.20;99.90;;;;;;5063705;28;20282;-44
2022/01/06 05:11:45;;;;;;;;;;;1.20;99.90;;;;;;5041977;28;19920;-48
2022/01/06 05:14:12;;;;;;;;;;;1.20;99.90;;;;;;5031791;28;19927;-44
2022/01/06 05:16:37;;;;;;;;;;;1.20;99.90;;;;;;5044749;28;20029;-46
2022/01/06 05:19:03;;;;;;;;;;;1.20;99.90;;;;;;5062251;28;19928;-46
2022/01/06 05:21:31;;;;;;;;;;;1.20;99.90;;;;;;5049285;28;20374;-43
2022/01/06 05:23:58;;;;;;;;;;;1.20;99.90;;;;;;5065639;28;19920;-45
2022/01/06 05:26:24;;;;;;;;;;;1.20;99.90;;;;;;5049651;28;19923;-44
2022/01/06 05:28:50;;;;;;;;;;;1.20;99.90;;;;;;5082713;28;20167;-47
2022/01/06 05:31:15;;;;;;;;;;;1.20;99.90;;;;;;5050696;28;19935;-44
2022/01/06 05:33:41;;;;;;;;;;;1.20;99.90;;;;;;5049404;28;20819;-44
2022/01/06 05:36:07;;;;;;;;;;;1.10;99.90;;;;;;5083012;28;19943;-44
2022/01/06 05:38:34;;;;;;;;;;;1.10;99.90;;;;;;5016360;28;19974;-44
2022/01/06 05:41:00;;;;;;;;;;;1.20;99.90;;;;;;5068372;28;19927;-45
2022/01/06 05:43:26;;;;;;;;;;;1.20;99.90;;;;;;5047971;28;19920;-47
2022/01/06 05:45:55;;;;;;;;;;;1.10;99.90;;;;;;5068849;28;20013;-44
2022/01/06 05:48:21;;;;;;;;;;;1.10;99.90;;;;;;5049973;28;19920;-47
2022/01/06 05:50:48;;;;;;;;;;;1.10;99.90;;;;;;5066660;28;19920;-49
2022/01/06 05:53:15;;;;;;;;;;;1.10;99.90;;;;;;5033847;28;19927;-44
2022/01/06 05:55:41;;;;;;;;;;;1.10;99.90;;;;;;5048976;28;19979;-46
2022/01/06 05:58:06;;;;;;;;;;;1.10;99.90;;;;;;5043743;28;19964;-46
2022/01/06 06:00:32;;;;;;;;;;;1.10;99.90;;;;;;5034272;28;20420;-47
2022/01/06 06:02:58;;;;;;;;;;;1.10;99.90;;;;;;5084739;28;19939;-47
2022/01/06 06:05:24;;;;;;;;;;;1.10;99.90;;;;;;5063004;28;20370;-45
2022/01/06 06:07:50;;;;;;;;;;;1.00;99.90;;;;;;5048764;28;19934;-45
2022/01/06 06:10:16;;;;;;;;;;;1.10;99.90;;;;;;5064056;28;19920;-45
2022/01/06 06:12:42;;;;;;;;;;;1.10;99.90;;;;;;5060867;28;20346;-48
2022/01/06 06:15:09;;;;;;;;;;;1.10;99.90;;;;;;5081647;28;19927;-46
2022/01/06 06:17:34;;;;;;;;;;;1.10;99.90;;;;;;5047400;28;19927;-48
2022/01/06 06:20:00;;;;;;;;;;;1.10;99.90;;;;;;5044623;28;20346;-46
2022/01/06 06:22:26;;;;;;;;;;;1.10;99.90;;;;;;5062044;28;20009;-46
2022/01/06 06:24:52;;;;;;;;;;;1.10;99.90;;;;;;5079348;28;20390;-44
2022/01/06 06:27:17;;;;;;;;;;;1.00;99.90;;;;;;5062870;28;20522;-44
2022/01/06 06:29:43;;;;;;;;;;;1.00;99.90;;;;;;5062216;28;20370;-44
2022/01/06 06:32:09;;;;;;;;;;;1.00;99.90;;;;;;5064875;28;20383;-46
2022/01/06 06:34:35;;;;;;;;;;;0.90;99.90;;;;;;5063927;28;19924;-46
2022/01/06 06:37:01;;;;;;;;;;;1.00;99.90;;;;;;5051045;28;19967;-44
2022/01/06 06:39:27;;;;;;;;;;;1.00;99.90;;;;;;5062467;28;20137;-44
2022/01/06 06:41:53;;;;;;;;;;;0.90;99.90;;;;;;5083387;28;19920;-45
2022/01/06 06:44:18;;;;;;;;;;;1.00;99.90;;;;;;5063495;28;20472;-46
2022/01/06 06:46:44;;;;;;;;;;;1.00;99.90;;;;;;5031634;28;19917;-44
2022/01/06 06:49:10;;;;;;;;;;;1.00;99.90;;;;;;5043167;28;19916;-44
2022/01/06 06:51:36;;;;;;;;;;;0.90;99.90;;;;;;5061922;28;19920;-45
2022/01/06 06:54:02;;;;;;;;;;;1.00;99.90;;;;;;5066971;28;21177;-44
2022/01/06 06:56:28;;;;;;;;;;;0.90;99.90;;;;;;5068076;28;19921;-47
2022/01/06 06:58:54;;;;;;;;;;;0.90;99.90;;;;;;5079457;28;19916;-47
2022/01/06 07:01:20;;;;;;;;;;;0.90;99.90;;;;;;5069376;28;20011;-47
2022/01/06 07:03:45;;;;;;;;;;;0.90;99.90;;;;;;5039273;28;20029;-47
2022/01/06 07:06:11;;;;;;;;;;;0.90;99.90;;;;;;5082059;28;19931;-45
2022/01/06 07:08:37;;;;;;;;;;;0.90;99.90;;;;;;5049667;28;20007;-46
2022/01/06 07:11:03;;;;;;;;;;;0.90;99.90;;;;;;5041194;28;20432;-45
2022/01/06 07:13:28;;;;;;;;;;;0.90;99.90;;;;;;5061270;28;20374;-45
2022/01/06 07:15:54;;;;;;;;;;;0.80;99.90;;;;;;5044047;28;19971;-45
2022/01/06 07:18:20;;;;;;;;;;;0.80;99.90;;;;;;5035926;28;20703;-45
2022/01/06 07:20:46;;;;;;;;;;;0.80;99.90;;;;;;5065233;28;20477;-47
2022/01/06 07:23:12;;;;;;;;;;;0.80;99.90;;;;;;5080432;28;19935;-47
2022/01/06 07:25:38;;;;;;;;;;;0.80;99.90;;;;;;5061726;28;19999;-46
2022/01/06 07:28:04;;;;;;;;;;;0.80;99.90;;;;;;5051254;28;19974;-44
2022/01/06 07:30:33;;;;;;;;;;;0.80;99.90;;;;;;5067638;28;19916;-48
2022/01/06 07:32:59;;;;;;;;;;;0.80;99.90;;;;;;5050237;28;19927;-47
2022/01/06 07:35:26;;;;;;;;;;;0.80;99.90;;;;;;5068073;28;20236;-46
2022/01/06 07:37:51;;;;;;;;;;;0.80;99.90;;;;;;5064110;28;19920;-46
2022/01/06 07:40:19;;;;;;;;;;;0.80;99.90;;;;;;5062295;28;20231;-45
2022/01/06 07:42:45;;;;;;;;;;;0.80;99.90;;;;;;5081281;28;19916;-48
2022/01/06 07:45:11;;;;;;;;;;;0.80;99.90;;;;;;5059837;28;20417;-45
2022/01/06 07:47:44;;;;;;;;;;;0.70;99.90;;;;;;5027795;28;19920;-46
2022/01/06 07:50:09;;;;;;;;;;;0.70;99.90;;;;;;5050594;28;20274;-43
2022/01/06 07:52:35;;;;;;;;;;;0.70;99.90;;;;;;5064944;28;19924;-48
2022/01/06 07:55:01;;;;;;;;;;;0.70;99.90;;;;;;5062747;28;20066;-44
2022/01/06 07:57:27;;;;;;;;;;;0.80;99.90;;;;;;5046668;28;19927;-43
2022/01/06 07:59:52;;;;;;;;;;;0.80;99.90;;;;;;5049090;28;19924;-45
2022/01/06 08:02:19;;;;;;;;;;;0.80;99.90;;;;;;5050488;28;20072;-47
2022/01/06 08:04:45;;;;;;;;;;;0.80;99.90;;;;;;5061433;28;20662;-43
2022/01/06 08:07:12;;;;;;;;;;;0.80;99.90;;;;;;5049588;28;20062;-46
2022/01/06 08:09:43;;;;;;;;;;;0.80;99.90;;;;;;5065588;28;19938;-44
2022/01/06 08:12:09;;;;;;;;;;;0.80;99.90;;;;;;5063406;28;20278;-45
2022/01/06 08:14:35;;;;;;;;;;;0.90;99.90;;;;;;5092555;28;19916;-47
2022/01/06 08:17:02;;;;;;;;;;;0.90;99.90;;;;;;5063273;28;19941;-45
2022/01/06 08:19:28;;;;;;;;;;;1.00;99.90;;;;;;5097700;28;19923;-47
2022/01/06 08:21:54;;;;;;;;;;;1.00;99.90;;;;;;5063274;28;19985;-44
2022/01/06 08:24:20;;;;;;;;;;;1.10;99.90;;;;;;5064594;28;19974;-44
2022/01/06 08:26:46;;;;;;;;;;;1.20;99.90;;;;;;5060834;28;19924;-44
2022/01/06 08:29:11;;;;;;;;;;;1.40;99.90;;;;;;5075833;28;20003;-44
2022/01/06 08:31:37;;;;;;;;;;;1.50;99.90;;;;;;5062430;28;20010;-45
2022/01/06 08:34:03;;;;;;;;;;;1.60;99.90;;;;;;5097703;28;20326;-44
2022/01/06 08:36:28;;;;;;;;;;;1.70;99.90;;;;;;5078828;28;20361;-45
2022/01/06 08:52:11;;;;;;;;;;;2.50;99.90;;;;;;5053816;28;20354;-45
2022/01/06 08:54:37;;;;;;;;;;;3.30;99.90;;;;;;5070381;28;19924;-45
2022/01/06 08:57:03;;;;;;;;;;;2.50;99.90;;;;;;5051038;28;19927;-45
2022/01/06 08:59:29;;;;;;;;;;;2.60;99.90;;;;;;5066722;28;19916;-48
2022/01/06 09:01:54;;;;;;;;;;;2.60;99.90;;;;;;5050264;28;19924;-48
2022/01/06 09:04:21;;;;;;;;;;;2.60;99.90;;;;;;5034539;28;20479;-45
2022/01/06 09:06:47;;;;;;;;;;;2.60;99.90;;;;;;5069002;28;19969;-45
2022/01/06 09:09:13;;;;;;;;;;;2.70;99.90;;;;;;5062984;28;19963;-48
2022/01/06 09:11:41;;;;;;;;;;;2.70;99.90;;;;;;5067244;28;19916;-49
2022/01/06 09:14:06;;;;;;;;;;;2.70;99.90;;;;;;5066851;28;20270;-45
2022/01/06 09:16:32;;;;;;;;;;;2.70;99.90;;;;;;5067671;28;19920;-46
2022/01/06 09:18:58;;;;;;;;;;;2.70;99.90;;;;;;5069091;28;20025;-45
2022/01/06 09:21:24;;;;;;;;;;;2.70;99.90;;;;;;5047804;28;19966;-45
2022/01/06 09:23:51;;;;;;;;;;;2.70;99.90;;;;;;5065893;28;19916;-46
2022/01/06 09:26:17;;;;;;;;;;;2.70;99.90;;;;;;5064386;28;20269;-46
2022/01/06 09:28:44;;;;;;;;;;;2.70;99.90;;;;;;5047579;28;20010;-47
2022/01/06 09:31:10;;;;;;;;;;;2.70;99.90;;;;;;5052466;28;19922;-45
2022/01/06 09:33:36;;;;;;;;;;;2.80;99.90;;;;;;5047384;28;19940;-46
2022/01/06 09:36:03;;;;;;;;;;;2.80;99.90;;;;;;5063557;28;19928;-46
2022/01/06 09:38:29;;;;;;;;;;;2.80;99.90;;;;;;5049876;28;19978;-46
2022/01/06 09:40:55;;;;;;;;;;;2.90;99.90;;;;;;5045855;28;19967;-47
2022/01/06 09:43:24;;;;;;;;;;;2.90;99.90;;;;;;5052812;28;19920;-49
2022/01/06 09:45:50;;;;;;;;;;;3.00;99.90;;;;;;5046946;28;19931;-47
2022/01/06 09:48:16;;;;;;;;;;;3.00;99.90;;;;;;5047339;28;19920;-49
2022/01/06 09:50:43;;;;;;;;;;;3.00;99.90;;;;;;5064633;28;20375;-46
2022/01/06 09:53:13;;;;;;;;;;;3.10;99.90;;;;;;5054751;28;19935;-45
2022/01/06 09:55:40;;;;;;;;;;;3.10;99.90;;;;;;5032320;28;20011;-50
2022/01/06 09:58:08;;;;;;;;;;;3.20;99.90;;;;;;5083203;28;19920;-45
2022/01/06 10:00:34;;;;;;;;;;;3.20;99.90;;;;;;5048897;28;19925;-46
2022/01/06 10:03:01;;;;;;;;;;;3.30;99.90;;;;;;5066672;28;20302;-46
2022/01/06 10:05:37;;;;;;;;;;;3.30;99.90;;;;;;5031997;28;19920;-45
2022/01/06 10:08:05;;;;;;;;;;;3.40;99.90;;;;;;5069842;28;19920;-45
2022/01/06 10:10:31;;;;;;;;;;;3.40;99.90;;;;;;5069689;28;20035;-45
2022/01/06 10:12:57;;;;;;;;;;;3.40;99.90;;;;;;5082019;28;20476;-46
2022/01/06 10:15:24;;;;;;;;;;;3.50;99.90;;;;;;5086873;28;20004;-44
2022/01/06 10:17:51;;;;;;;;;;;3.60;99.90;;;;;;5068764;28;19938;-47
2022/01/06 10:20:17;;;;;;;;;;;3.60;99.90;;;;;;5066784;28;19920;-45
2022/01/06 10:22:48;;;;;;;;;;;3.70;99.90;;;;;;5053231;28;19917;-45
2022/01/06 10:25:14;;;;;;;;;;;3.80;99.90;;;;;;5068940;28;19974;-47
2022/01/06 10:27:41;;;;;;;;;;;3.80;99.90;;;;;;5039608;28;19946;-46
2022/01/06 10:30:08;;;;;;;;;;;3.90;99.90;;;;;;5083446;28;19963;-48
2022/01/06 10:32:36;;;;;;;;;;;3.90;99.90;;;;;;5050239;28;19957;-49
2022/01/06 10:35:05;;;;;;;;;;;3.90;99.90;;;;;;5081811;28;20313;-45
2022/01/06 10:37:34;;;;;;;;;;;3.90;99.90;;;;;;5054874;28;19920;-46
2022/01/06 10:40:02;;;;;;;;;;;4.00;99.90;;;;;;5039452;28;19920;-47
2022/01/06 10:42:29;;;;;;;;;;;4.10;99.90;;;;;;5085925;28;19959;-46
2022/01/06 10:45:07;;;;;;;;;;;4.20;99.90;;;;;;5057981;28;20254;-47
2022/01/06 10:47:35;;;;;;;;;;;4.20;99.90;;;;;;5069714;28;20378;-47
2022/01/06 10:50:11;;;;;;;;;;;4.30;99.90;;;;;;5054857;28;19991;-48
2022/01/06 10:52:39;;;;;;;;;;;4.40;99.90;;;;;;5068014;28;19982;-47
2022/01/06 10:55:12;;;;;;;;;;;4.50;99.90;;;;;;5068682;28;19955;-47
2022/01/06 10:57:58;;;;;;;;;;;4.60;99.90;;;;;;5067691;28;19935;-47
2022/01/06 11:00:25;;;;;;;;;;;4.60;99.90;;;;;;5053873;28;19999;-47
2022/01/06 11:02:51;;;;;;;;;;;4.70;99.90;;;;;;5051288;28;20286;-47
2022/01/06 11:05:17;;;;;;;;;;;4.70;99.90;;;;;;5069701;28;19921;-48
2022/01/06 11:07:43;;;;;;;;;;;4.80;99.90;;;;;;5064333;28;19962;-46
2022/01/06 11:10:21;;;;;;;;;;;4.90;99.90;;;;;;5032784;28;20385;-47
2022/01/06 11:12:46;;;;;;;;;;;5.00;99.90;;;;;;5059057;28;19925;-50
2022/01/06 11:15:13;;;;;;;;;;;5.10;99.90;;;;;;5066577;28;19935;-47
2022/01/06 11:17:39;;;;;;;;;;;5.20;99.90;;;;;;5064571;28;19917;-49
2022/01/06 11:20:05;;;;;;;;;;;5.20;99.90;;;;;;5033053;28;19941;-47
2022/01/06 11:22:31;;;;;;;;;;;5.20;99.90;;;;;;5059179;28;19920;-46
2022/01/06 11:24:59;;;;;;;;;;;5.30;99.90;;;;;;5048009;28;20370;-46
2022/01/06 11:27:35;;;;;;;;;;;5.30;99.90;;;;;;5064437;28;19971;-49
2022/01/06 11:30:08;;;;;;;;;;;5.30;99.90;;;;;;5066116;28;19920;-46
2022/01/06 11:32:34;;;;;;;;;;;5.40;99.90;;;;;;5030477;28;20266;-48
2022/01/06 11:35:04;;;;;;;;;;;5.40;99.90;;;;;;5046424;28;19920;-49
2022/01/06 11:37:40;;;;;;;;;;;5.40;99.90;;;;;;5055155;28;20013;-45
2022/01/06 11:40:06;;;;;;;;;;;5.50;99.90;;;;;;5059497;28;19928;-46
2022/01/06 11:42:32;;;;;;;;;;;5.50;99.90;;;;;;5046267;28;19916;-50
2022/01/06 11:44:58;;;;;;;;;;;5.50;99.90;;;;;;5062846;28;20271;-46
2022/01/06 11:47:31;;;;;;;;;;;5.50;99.90;;;;;;5030678;28;19916;-49
2022/01/06 11:50:08;;;;;;;;;;;5.60;99.90;;;;;;5047130;28;19978;-49
2022/01/06 11:52:36;;;;;;;;;;;5.60;99.90;;;;;;5031668;28;20465;-49
2022/01/06 11:55:03;;;;;;;;;;;5.70;99.90;;;;;;5059960;28;19924;-45
2022/01/06 11:57:32;;;;;;;;;;;5.70;99.90;;;;;;5045554;28;20015;-48
2022/01/06 11:59:58;;;;;;;;;;;5.70;99.90;;;;;;5063250;28;20367;-48
2022/01/06 12:02:26;;;;;;;;;;;5.80;99.90;;;;;;5064288;28;20370;-48
2022/01/06 12:04:56;;;;;;;;;;;5.70;99.90;;;;;;5066246;28;20275;-46
2022/01/06 12:07:22;;;;;;;;;;;5.80;99.90;;;;;;5078459;28;19917;-47
2022/01/06 12:09:57;;;;;;;;;;;5.80;99.90;;;;;;5096897;27;20006;-45
2022/01/06 12:12:31;;;;;;;;;;;5.90;99.90;;;;;;5076494;28;19963;-49
2022/01/06 12:15:11;;;;;;;;;;;5.90;99.90;;;;;;5058879;28;19935;-47
2022/01/06 12:17:36;;;;;;;;;;;5.90;99.90;;;;;;5080989;28;20382;-49
2022/01/06 12:20:04;;;;;;;;;;;5.90;99.90;;;;;;5059026;28;19934;-50
2022/01/06 12:22:29;;;;;;;;;;;5.90;99.90;;;;;;5079534;28;19925;-49
2022/01/06 12:25:03;;;;;;;;;;;5.90;99.90;;;;;;5072801;28;20383;-49
2022/01/06 12:27:30;;;;;;;;;;;5.90;99.90;;;;;;5081345;28;20538;-47
2022/01/06 12:29:56;;;;;;;;;;;6.00;99.90;;;;;;5055999;28;19923;-49
2022/01/06 12:32:22;;;;;;;;;;;6.00;99.90;;;;;;5082157;28;21717;-48
2022/01/06 12:34:51;;;;;;;;;;;6.00;99.90;;;;;;5079352;28;20053;-46
2022/01/06 12:37:30;;;;;;;;;;;6.00;99.90;;;;;;5069430;28;19948;-46
2022/01/06 12:39:56;;;;;;;;;;;6.00;99.90;;;;;;5082269;28;20662;-47
2022/01/06 12:42:22;;;;;;;;;;;6.00;99.90;;;;;;5081483;28;19927;-47
2022/01/06 12:44:48;;;;;;;;;;;6.10;99.90;;;;;;5079443;28;20385;-45
2022/01/06 12:47:14;;;;;;;;;;;6.10;99.90;;;;;;5100472;28;19916;-46
2022/01/06 12:49:40;;;;;;;;;;;6.10;99.90;;;;;;5066026;28;19916;-47
2022/01/06 12:52:06;;;;;;;;;;;6.10;99.90;;;;;;5098032;28;19920;-49
2022/01/06 12:54:34;;;;;;;;;;;6.10;99.90;;;;;;5079604;28;19938;-47
2022/01/06 12:57:02;;;;;;;;;;;6.10;99.90;;;;;;5079827;28;19916;-47
2022/01/06 12:59:34;;;;;;;;;;;6.10;99.90;;;;;;5082344;28;19977;-45
2022/01/06 13:02:03;;;;;;;;;;;6.10;99.90;;;;;;5063928;28;19920;-48
2022/01/06 13:04:30;;;;;;;;;;;6.10;99.90;;;;;;5100259;28;20370;-47
2022/01/06 13:06:57;;;;;;;;;;;6.10;99.90;;;;;;5101957;28;19936;-48
2022/01/06 13:09:24;;;;;;;;;;;6.20;99.90;;;;;;5043012;28;20526;-48
2022/01/06 13:11:52;;;;;;;;;;;6.20;99.90;;;;;;5062392;28;20382;-45
2022/01/06 13:14:24;;;;;;;;;;;6.20;99.90;;;;;;5061628;28;20054;-49
2022/01/06 13:16:50;;;;;;;;;;;6.20;99.90;;;;;;5057522;28;20410;-48
2022/01/06 13:19:16;;;;;;;;;;;6.30;99.90;;;;;;5065258;28;19977;-49
2022/01/06 13:21:50;;;;;;;;;;;6.30;99.90;;;;;;5062648;28;19991;-46
2022/01/06 13:24:23;;;;;;;;;;;6.30;99.90;;;;;;5062308;28;20266;-49
2022/01/06 13:26:55;;;;;;;;;;;6.30;99.90;;;;;;5065050;28;19924;-49
2022/01/06 13:29:32;;;;;;;;;;;6.30;99.90;;;;;;5074380;28;19932;-49
2022/01/06 13:32:03;;;;;;;;;;;6.30;99.90;;;;;;5064098;28;19920;-48
2022/01/06 13:34:29;;;;;;;;;;;6.20;99.90;;;;;;5077447;28;19920;-49
2022/01/06 13:37:10;;;;;;;;;;;6.20;99.90;;;;;;5059701;28;19920;-47
2022/01/06 13:39:42;;;;;;;;;;;6.20;99.90;;;;;;5063150;28;20318;-45
2022/01/06 13:42:23;;;;;;;;;;;6.20;99.90;;;;;;5063619;28;20278;-47
2022/01/06 13:44:52;;;;;;;;;;;6.10;99.90;;;;;;5080368;28;19930;-47
2022/01/06 13:47:28;;;;;;;;;;;6.10;99.90;;;;;;5079191;28;20003;-48
2022/01/06 13:52:45;;;;;;;;;;;6.00;99.90;;;;;;5062942;28;19920;-47
2022/01/06 13:55:15;;;;;;;;;;;5.90;99.90;;;;;;5069370;28;19931;-49
2022/01/06 13:57:40;;;;;;;;;;;5.90;99.90;;;;;;5066511;28;20069;-45
2022/01/06 14:00:06;;;;;;;;;;;5.80;99.90;;;;;;5066825;28;19924;-48
2022/01/06 14:02:33;;;;;;;;;;;5.80;99.90;;;;;;5098089;27;19925;-46
2022/01/06 14:05:06;;;;;;;;;;;5.70;99.90;;;;;;5083529;28;20282;-46
2022/01/06 14:07:32;;;;;;;;;;;5.70;99.90;;;;;;5068564;28;20583;-44
2022/01/06 14:09:58;;;;;;;;;;;5.60;99.90;;;;;;5047778;28;19995;-47
2022/01/06 14:12:24;;;;;;;;;;;5.60;99.90;;;;;;5029579;28;20008;-47
2022/01/06 14:14:50;;;;;;;;;;;5.50;99.90;;;;;;5016674;28;19923;-45
2022/01/06 14:17:15;;;;;;;;;;;5.50;99.90;;;;;;5049098;28;19920;-46
2022/01/06 14:19:41;;;;;;;;;;;5.50;99.90;;;;;;5067184;28;19924;-45
2022/01/06 14:22:07;;;;;;;;;;;5.40;99.90;;;;;;5047120;28;19924;-48
2022/01/06 14:24:35;;;;;;;;;;;5.40;99.90;;;;;;5063927;28;20329;-46
2022/01/06 14:27:02;;;;;;;;;;;5.40;99.90;;;;;;5049148;28;20019;-45
2022/01/06 14:29:28;;;;;;;;;;;5.40;99.90;;;;;;5065776;28;19924;-45
2022/01/06 14:31:56;;;;;;;;;;;5.30;99.90;;;;;;5044860;28;19920;-47
2022/01/06 14:34:22;;;;;;;;;;;5.40;99.90;;;;;;5066428;28;19955;-47
2022/01/06 14:36:51;;;;;;;;;;;5.30;99.90;;;;;;5065418;28;20389;-48
2022/01/06 14:39:17;;;;;;;;;;;5.30;99.90;;;;;;5064579;28;20361;-44
2022/01/06 14:41:43;;;;;;;;;;;5.30;99.90;;;;;;5065938;28;19999;-46
2022/01/06 14:44:08;;;;;;;;;;;5.20;99.90;;;;;;5050525;28;19916;-47
2022/01/06 14:46:35;;;;;;;;;;;5.20;99.90;;;;;;5031490;28;19920;-49
2022/01/06 14:49:04;;;;;;;;;;;5.10;99.90;;;;;;5068025;28;20242;-46
2022/01/06 14:51:30;;;;;;;;;;;5.00;99.90;;;;;;5067900;28;19920;-47
2022/01/06 14:53:56;;;;;;;;;;;4.90;99.90;;;;;;5048301;28;19947;-46
2022/01/06 14:56:21;;;;;;;;;;;4.90;99.90;;;;;;5072978;28;20399;-45
2022/01/06 14:58:50;;;;;;;;;;;4.80;99.90;;;;;;5029685;28;20001;-45
2022/01/06 15:01:16;;;;;;;;;;;4.70;99.90;;;;;;5047814;28;19953;-45
2022/01/06 15:03:42;;;;;;;;;;;4.70;99.90;;;;;;5058737;28;19952;-46
2022/01/06 15:06:08;;;;;;;;;;;4.60;99.90;;;;;;5062910;28;19975;-47
2022/01/06 15:08:34;;;;;;;;;;;;;;;;;;5066167;28;19920;-47
2022/01/06 15:11:00;;;;;;;;;;;4.50;99.90;;;;;;5035271;28;19971;-48
2022/01/06 15:13:26;;;;;;;;;;;4.50;99.90;;;;;;5067980;28;20396;-46
2022/01/06 15:15:53;;;;;;;;;;;4.40;99.90;;;;;;5049182;28;20517;-48
2022/01/06 15:18:19;;;;;;;;;;;4.30;99.90;;;;;;5050842;28;19924;-47
2022/01/06 15:20:46;;;;;;;;;;;4.30;99.90;;;;;;5063349;28;20477;-48
2022/01/06 15:23:12;;;;;;;;;;;4.30;99.90;;;;;;5049079;28;20007;-48
2022/01/06 15:25:37;;;;;;;;;;;4.20;99.90;;;;;;5067379;28;20015;-44
2022/01/06 15:28:05;;;;;;;;;;;4.10;99.90;;;;;;5036283;28;19978;-44
2022/01/06 15:30:32;;;;;;;;;;;4.10;99.90;;;;;;5008261;28;19975;-46
2022/01/06 15:32:58;;;;;;;;;;;4.10;99.90;;;;;;5062890;28;20578;-46
2022/01/06 15:35:25;;;;;;;;;;;4.10;99.90;;;;;;5031762;28;19924;-46
2022/01/06 15:37:51;;;;;;;;;;;4.00;99.90;;;;;;5044602;28;19932;-45
2022/01/06 15:40:20;;;;;;;;;;;4.00;99.90;;;;;;5044808;28;19927;-49
2022/01/06 15:42:47;;;;;;;;;;;3.90;99.90;;;;;;5061640;28;20282;-44
2022/01/06 15:45:14;;;;;;;;;;;3.90;99.90;;;;;;5063531;28;21463;-48
2022/01/06 15:47:40;;;;;;;;;;;3.80;99.90;;;;;;5044346;28;20378;-44
2022/01/06 15:50:06;;;;;;;;;;;3.80;99.90;;;;;;5045438;28;19928;-45
2022/01/06 15:52:32;;;;;;;;;;;3.80;99.90;;;;;;5058115;28;19943;-48
2022/01/06 15:54:57;;;;;;;;;;;3.70;99.90;;;;;;5066204;28;19958;-44
2022/01/06 15:57:24;;;;;;;;;;;3.70;99.90;;;;;;5045747;28;19916;-46
2022/01/06 15:59:59;;;;;;;;;;;3.60;99.90;;;;;;5047995;28;19926;-43
2022/01/06 16:05:12;;;;;;;;;;;3.50;99.90;;;;;;5035566;28;19924;-45
2022/01/06 16:07:42;;;;;;;;;;;3.50;99.90;;;;;;5062583;28;20251;-46
2022/01/06 16:10:09;;;;;;;;;;;3.40;99.90;;;;;;5058745;28;20515;-46
2022/01/06 16:12:35;;;;;;;;;;;3.40;99.90;;;;;;5026225;28;19924;-46
2022/01/06 16:15:01;;;;;;;;;;;3.30;99.90;;;;;;5062116;28;20017;-43
2022/01/06 16:17:28;;;;;;;;;;;3.30;99.90;;;;;;5062679;28;19924;-45
2022/01/06 16:19:54;;;;;;;;;;;3.30;99.90;;;;;;5042776;28;19917;-45
2022/01/06 16:22:20;;;;;;;;;;;3.20;99.90;;;;;;5069321;28;19916;-45
2022/01/06 16:24:46;;;;;;;;;;;3.20;99.90;;;;;;5062427;28;19927;-44
2022/01/06 16:27:15;;;;;;;;;;;3.10;99.90;;;;;;5031129;28;19916;-44
2022/01/06 16:29:42;;;;;;;;;;;3.10;99.90;;;;;;5047356;28;19947;-45
2022/01/06 16:32:27;;;;;;;;;;;3.00;99.90;;;;;;5046301;28;19925;-46
2022/01/06 16:34:53;;;;;;;;;;;3.00;99.90;;;;;;5080004;28;19920;-43
2022/01/06 16:37:19;;;;;;;;;;;3.00;99.90;;;;;;5050077;28;19920;-47
2022/01/06 16:39:49;;;;;;;;;;;3.00;99.90;;;;;;5065723;28;19924;-43
2022/01/06 16:42:15;;;;;;;;;;;2.90;99.90;;;;;;5042841;28;20527;-44